Time;durP1;ratioP1;P1;durP2;ratioP2;P2;SDS_P1;SDS_P2;PMS_P1;PMS_P2;Temp;Humidity;BMP_temperature;BMP_pressure;BME280_temperature;BME280_humidity;BME280_pressure;Samples;Min_cycle;Max_cycle;Signal;HPM_P1;HPM_P2
2021/03/19 00:01:33;;;;;;;48.28;46.10;;;;;;;;;;5046892;28;20041;-79
2021/03/19 00:04:00;;;;;;;47.20;44.88;;;;;;;;;;5047885;28;20041;-79
2021/03/19 00:06:27;;;;;;;47.35;44.78;;;;;;;;;;5024578;28;20571;-80
2021/03/19 00:08:54;;;;;;;50.30;47.67;;;;;;;;;;5044173;28;21175;-80
2021/03/19 00:11:22;;;;;;;48.53;45.92;;;;;;;;;;5022927;28;20064;-80
2021/03/19 00:13:49;;;;;;;50.15;46.95;;;;;;;;;;5027313;28;20068;-79
2021/03/19 00:16:16;;;;;;;50.38;47.10;;;;;;;;;;5048867;28;20064;-79
2021/03/19 00:18:44;;;;;;;54.78;51.20;;;;;;;;;;5025966;28;20041;-79
2021/03/19 00:21:12;;;;;;;52.63;49.30;;;;;;;;;;5028388;28;20045;-79
2021/03/19 00:23:38;;;;;;;51.65;48.25;;;;;;;;;;5047649;28;20060;-80
2021/03/19 00:26:06;;;;;;;52.55;49.13;;;;;;;;;;5043868;28;20390;-80
2021/03/19 00:28:33;;;;;;;51.03;47.35;;;;;;;;;;5028250;28;20037;-80
2021/03/19 00:31:00;;;;;;;50.45;47.17;;;;;;;;;;5025496;28;20575;-80
2021/03/19 00:33:27;;;;;;;51.53;48.15;;;;;;;;;;5018230;28;20041;-79
2021/03/19 00:35:55;;;;;;;49.63;46.75;;;;;;;;;;5035496;28;20041;-79
2021/03/19 00:38:22;;;;;;;51.08;47.88;;;;;;;;;;5023365;28;20045;-79
2021/03/19 00:40:49;;;;;;;47.35;44.83;;;;;;;;;;5030772;28;20041;-79
2021/03/19 00:43:16;;;;;;;49.47;46.88;;;;;;;;;;5043698;28;20402;-79
2021/03/19 00:45:44;;;;;;;48.05;45.38;;;;;;;;;;5023003;28;20033;-79
2021/03/19 00:48:11;;;;;;;49.58;46.75;;;;;;;;;;5030159;28;20086;-79
2021/03/19 00:50:50;;;;;;;48.38;45.95;;;;;;;;;;5013453;28;20402;-79
2021/03/19 00:53:17;;;;;;;45.58;43.58;;;;;;;;;;5038545;28;20048;-80
2021/03/19 00:55:44;;;;;;;45.80;43.83;;;;;;;;;;5049537;28;20037;-80
2021/03/19 00:58:11;;;;;;;43.63;41.67;;;;;;;;;;5029866;28;20045;-80
2021/03/19 01:00:38;;;;;;;44.80;42.88;;;;;;;;;;5034768;28;20452;-79
2021/03/19 01:03:07;;;;;;;47.20;45.20;;;;;;;;;;5031004;28;20037;-80
2021/03/19 01:05:36;;;;;;;44.50;42.70;;;;;;;;;;5052005;28;20134;-79
2021/03/19 01:08:04;;;;;;;41.80;40.00;;;;;;;;;;5019482;28;20041;-79
2021/03/19 01:10:54;;;;;;;46.38;44.17;;;;;;;;;;5045401;28;20056;-79
2021/03/19 01:13:22;;;;;;;46.13;43.97;;;;;;;;;;5021797;28;20591;-79
2021/03/19 01:15:49;;;;;;;45.45;43.22;;;;;;;;;;5050037;28;20116;-79
2021/03/19 01:18:18;;;;;;;42.85;40.83;;;;;;;;;;5012854;28;20053;-79
2021/03/19 01:20:45;;;;;;;43.88;41.97;;;;;;;;;;5051980;28;20068;-79
2021/03/19 01:23:13;;;;;;;48.50;46.05;;;;;;;;;;5047605;28;20041;-79
2021/03/19 01:25:40;;;;;;;45.03;43.22;;;;;;;;;;5048456;28;20045;-79
2021/03/19 01:28:08;;;;;;;47.88;45.53;;;;;;;;;;5050815;28;20483;-79
2021/03/19 01:30:36;;;;;;;45.22;42.92;;;;;;;;;;5044482;28;20481;-79
2021/03/19 01:33:03;;;;;;;47.10;44.80;;;;;;;;;;5033567;28;20063;-79
2021/03/19 01:35:32;;;;;;;47.33;44.97;;;;;;;;;;5030859;28;20083;-79
2021/03/19 01:37:59;;;;;;;48.97;46.38;;;;;;;;;;5024894;28;20107;-79
2021/03/19 01:40:30;;;;;;;48.72;45.97;;;;;;;;;;5015650;28;20445;-79
2021/03/19 01:43:06;;;;;;;44.35;42.22;;;;;;;;;;5043614;28;20040;-79
2021/03/19 01:45:52;;;;;;;45.22;43.10;;;;;;;;;;5026063;28;20037;-79
2021/03/19 01:48:38;;;;;;;45.72;43.42;;;;;;;;;;5049509;28;20045;-79
2021/03/19 01:51:31;;;;;;;46.13;44.03;;;;;;;;;;5029421;28;20037;-79
2021/03/19 01:54:18;;;;;;;47.30;44.95;;;;;;;;;;5011733;28;20055;-79
2021/03/19 01:57:03;;;;;;;53.05;49.83;;;;;;;;;;5045327;28;20043;-80
2021/03/19 01:59:49;;;;;;;48.50;45.90;;;;;;;;;;5027683;28;20037;-79
2021/03/19 02:02:35;;;;;;;49.90;47.30;;;;;;;;;;5045009;28;20052;-79
2021/03/19 02:05:22;;;;;;;46.83;44.58;;;;;;;;;;5032840;28;20052;-79
2021/03/19 02:08:22;;;;;;;50.78;48.10;;;;;;;;;;5050628;28;20119;-79
2021/03/19 02:11:07;;;;;;;49.53;46.65;;;;;;;;;;5003832;28;20057;-79
2021/03/19 02:13:53;;;;;;;48.20;45.58;;;;;;;;;;5014604;28;20053;-79
2021/03/19 02:16:39;;;;;;;48.45;45.67;;;;;;;;;;5032318;28;20106;-79
2021/03/19 02:19:25;;;;;;;46.70;44.28;;;;;;;;;;5026995;28;20064;-79
2021/03/19 02:22:15;;;;;;;47.28;45.00;;;;;;;;;;5036871;28;20037;-79
2021/03/19 02:25:01;;;;;;;45.05;43.05;;;;;;;;;;5020254;28;20493;-79
2021/03/19 02:27:46;;;;;;;49.10;46.72;;;;;;;;;;5026372;28;20037;-79
2021/03/19 02:30:32;;;;;;;50.15;47.75;;;;;;;;;;5049790;28;20049;-79
2021/03/19 02:32:59;;;;;;;47.03;44.72;;;;;;;;;;5016347;28;20033;-79
2021/03/19 02:35:27;;;;;;;46.35;44.15;;;;;;;;;;5028431;28;20053;-79
2021/03/19 02:37:54;;;;;;;47.08;44.60;;;;;;;;;;5033161;28;20041;-79
2021/03/19 02:40:22;;;;;;;47.88;45.47;;;;;;;;;;5016971;28;20045;-79
2021/03/19 02:42:50;;;;;;;47.38;45.08;;;;;;;;;;5024566;28;20053;-79
2021/03/19 02:45:19;;;;;;;45.38;43.35;;;;;;;;;;5033010;28;20045;-79
2021/03/19 02:47:47;;;;;;;48.65;46.35;;;;;;;;;;5009734;28;20504;-79
2021/03/19 02:50:15;;;;;;;45.45;43.30;;;;;;;;;;5014672;28;20107;-79
2021/03/19 02:52:43;;;;;;;46.72;44.45;;;;;;;;;;5027899;28;20045;-79
2021/03/19 02:55:12;;;;;;;48.63;46.03;;;;;;;;;;5015910;28;20064;-79
2021/03/19 02:57:39;;;;;;;47.33;45.15;;;;;;;;;;5039156;28;20048;-79
2021/03/19 03:00:08;;;;;;;46.63;44.35;;;;;;;;;;5029005;28;20033;-79
2021/03/19 03:02:35;;;;;;;48.13;45.95;;;;;;;;;;5030780;28;20422;-79
2021/03/19 03:05:03;;;;;;;45.88;43.78;;;;;;;;;;5030830;28;20048;-79
2021/03/19 03:07:31;;;;;;;47.70;45.63;;;;;;;;;;5026166;28;20037;-79
2021/03/19 03:10:00;;;;;;;45.88;43.75;;;;;;;;;;5037187;28;20045;-79
2021/03/19 03:12:28;;;;;;;45.92;44.17;;;;;;;;;;5046067;28;20040;-79
2021/03/19 03:15:01;;;;;;;47.55;45.70;;;;;;;;;;5047436;28;20050;-79
2021/03/19 03:17:28;;;;;;;49.17;46.97;;;;;;;;;;5048994;28;20053;-79
2021/03/19 03:19:56;;;;;;;52.90;50.33;;;;;;;;;;5026072;28;20047;-79
2021/03/19 03:22:40;;;;;;;44.70;42.58;;;;;;;;;;5027921;28;20157;-79
2021/03/19 03:25:07;;;;;;;47.78;45.80;;;;;;;;;;5048017;28;20049;-79
2021/03/19 03:27:34;;;;;;;47.67;45.58;;;;;;;;;;5028239;28;20087;-79
2021/03/19 03:30:01;;;;;;;43.40;41.75;;;;;;;;;;5031891;28;20529;-79
2021/03/19 03:32:28;;;;;;;45.38;43.58;;;;;;;;;;5014509;28;20045;-79
2021/03/19 03:34:56;;;;;;;51.30;49.08;;;;;;;;;;5029776;28;20037;-79
2021/03/19 03:37:25;;;;;;;48.03;45.83;;;;;;;;;;5030347;28;20078;-79
2021/03/19 03:39:52;;;;;;;48.03;45.92;;;;;;;;;;5022065;28;20525;-79
2021/03/19 03:42:19;;;;;;;50.15;47.83;;;;;;;;;;4995426;28;20584;-79
2021/03/19 03:44:47;;;;;;;53.15;50.63;;;;;;;;;;5010847;28;20144;-79
2021/03/19 03:47:14;;;;;;;53.33;50.45;;;;;;;;;;5009779;28;20669;-79
2021/03/19 03:49:42;;;;;;;54.05;51.35;;;;;;;;;;5011762;28;20042;-79
2021/03/19 03:52:09;;;;;;;49.78;46.92;;;;;;;;;;5024112;28;20178;-79
2021/03/19 03:54:36;;;;;;;49.20;46.67;;;;;;;;;;5015512;28;20057;-79
2021/03/19 03:57:03;;;;;;;44.83;43.00;;;;;;;;;;5026730;28;20540;-79
2021/03/19 03:59:30;;;;;;;49.85;47.65;;;;;;;;;;5009389;28;20542;-79
2021/03/19 04:01:57;;;;;;;45.78;43.95;;;;;;;;;;5025405;28;20053;-79
2021/03/19 04:04:24;;;;;;;44.60;43.13;;;;;;;;;;5016697;28;20060;-79
2021/03/19 04:06:51;;;;;;;48.60;46.70;;;;;;;;;;5045980;28;20083;-79
2021/03/19 04:09:18;;;;;;;43.13;41.40;;;;;;;;;;5047446;28;20033;-79
2021/03/19 04:11:48;;;;;;;46.83;44.92;;;;;;;;;;5022455;28;20037;-80
2021/03/19 04:14:15;;;;;;;48.80;46.65;;;;;;;;;;5033043;28;20041;-80
2021/03/19 04:16:43;;;;;;;45.78;44.15;;;;;;;;;;5003961;28;20572;-79
2021/03/19 04:19:10;;;;;;;46.55;44.63;;;;;;;;;;5022235;28;20084;-79
2021/03/19 04:21:40;;;;;;;48.85;46.60;;;;;;;;;;5025568;28;20077;-79
2021/03/19 04:24:07;;;;;;;49.80;47.55;;;;;;;;;;5022691;28;20041;-79
2021/03/19 04:26:35;;;;;;;51.30;48.92;;;;;;;;;;5038930;28;20503;-80
2021/03/19 04:29:03;;;;;;;48.70;46.15;;;;;;;;;;5032777;28;20430;-79
2021/03/19 04:31:31;;;;;;;48.60;46.42;;;;;;;;;;5021527;28;20025;-79
2021/03/19 04:33:58;;;;;;;50.08;47.67;;;;;;;;;;5029090;28;20045;-79
2021/03/19 04:36:30;;;;;;;50.88;48.45;;;;;;;;;;5028112;28;20046;-79
2021/03/19 04:38:58;;;;;;;51.97;49.20;;;;;;;;;;5019122;28;20369;-79
2021/03/19 04:41:27;;;;;;;50.20;47.75;;;;;;;;;;5030920;28;20111;-79
2021/03/19 04:43:54;;;;;;;48.22;45.80;;;;;;;;;;5029655;28;20447;-79
2021/03/19 04:46:21;;;;;;;50.20;47.80;;;;;;;;;;5031161;28;20033;-79
2021/03/19 04:48:48;;;;;;;44.90;42.80;;;;;;;;;;5024265;28;20045;-79
2021/03/19 04:51:15;;;;;;;52.40;50.05;;;;;;;;;;5015589;28;20045;-79
2021/03/19 04:53:52;;;;;;;49.83;47.53;;;;;;;;;;5028117;28;20107;-79
2021/03/19 04:56:19;;;;;;;51.10;48.58;;;;;;;;;;5026687;28;20084;-79
2021/03/19 04:58:47;;;;;;;46.42;44.40;;;;;;;;;;5028473;28;20080;-79
2021/03/19 05:01:14;;;;;;;49.05;46.85;;;;;;;;;;5020690;28;20414;-79
2021/03/19 05:03:43;;;;;;;46.45;44.47;;;;;;;;;;5022552;28;20045;-79
2021/03/19 05:06:10;;;;;;;44.13;42.25;;;;;;;;;;5029468;28;20076;-79
2021/03/19 05:08:38;;;;;;;44.00;42.47;;;;;;;;;;5024104;28;20045;-79
2021/03/19 05:11:05;;;;;;;44.50;42.90;;;;;;;;;;5029317;28;20479;-79
2021/03/19 05:13:32;;;;;;;44.47;42.88;;;;;;;;;;5043686;28;20049;-79
2021/03/19 05:15:59;;;;;;;45.40;43.80;;;;;;;;;;5012842;28;20072;-79
2021/03/19 05:18:26;;;;;;;42.95;41.55;;;;;;;;;;5030613;28;20057;-79
2021/03/19 05:20:53;;;;;;;43.42;42.03;;;;;;;;;;5024056;28;20044;-79
2021/03/19 05:23:28;;;;;;;42.35;40.95;;;;;;;;;;5029039;28;20034;-79
2021/03/19 05:25:55;;;;;;;45.55;43.95;;;;;;;;;;5036895;28;20045;-79
2021/03/19 05:28:22;;;;;;;44.25;42.65;;;;;;;;;;5019688;28;20042;-79
2021/03/19 05:30:54;;;;;;;43.83;42.22;;;;;;;;;;5030756;28;20047;-79
2021/03/19 05:33:22;;;;;;;45.22;43.20;;;;;;;;;;5026638;28;20124;-79
2021/03/19 05:35:50;;;;;;;48.47;46.40;;;;;;;;;;5029496;28;20116;-79
2021/03/19 05:38:18;;;;;;;47.15;45.25;;;;;;;;;;5022885;28;20487;-79
2021/03/19 05:40:47;;;;;;;45.70;43.90;;;;;;;;;;5020474;28;20034;-79
2021/03/19 05:43:23;;;;;;;48.08;45.88;;;;;;;;;;4997377;28;20131;-79
2021/03/19 05:45:52;;;;;;;52.13;49.22;;;;;;;;;;5027566;28;20060;-79
2021/03/19 05:48:20;;;;;;;51.17;48.45;;;;;;;;;;5007205;28;20042;-79
2021/03/19 05:50:47;;;;;;;47.22;45.13;;;;;;;;;;5024115;28;20107;-79
2021/03/19 05:53:16;;;;;;;48.22;45.95;;;;;;;;;;5023037;28;20487;-79
2021/03/19 05:55:44;;;;;;;49.83;47.42;;;;;;;;;;4998703;28;20053;-79
2021/03/19 05:58:30;;;;;;;45.88;43.97;;;;;;;;;;5027158;28;20072;-79
2021/03/19 06:00:58;;;;;;;46.35;44.47;;;;;;;;;;5006858;28;20057;-79
2021/03/19 06:03:26;;;;;;;50.65;47.88;;;;;;;;;;5028103;28;21094;-79
2021/03/19 06:06:02;;;;;;;48.05;46.13;;;;;;;;;;5022959;28;20025;-79
2021/03/19 06:08:33;;;;;;;46.13;44.42;;;;;;;;;;5022220;28;20041;-79
2021/03/19 06:11:27;;;;;;;46.88;45.00;;;;;;;;;;5031404;28;20137;-79
2021/03/19 06:13:56;;;;;;;42.67;40.97;;;;;;;;;;5017863;28;20502;-79
2021/03/19 06:16:32;;;;;;;44.70;43.08;;;;;;;;;;5029006;28;20080;-79
2021/03/19 06:19:02;;;;;;;47.05;45.15;;;;;;;;;;5033736;28;20428;-79
2021/03/19 06:21:32;;;;;;;44.47;42.72;;;;;;;;;;5024767;28;20103;-79
2021/03/19 06:23:59;;;;;;;44.22;42.33;;;;;;;;;;5040321;28;20047;-79
2021/03/19 06:26:27;;;;;;;48.83;46.83;;;;;;;;;;5047104;28;20041;-80
2021/03/19 06:29:15;;;;;;;48.35;46.13;;;;;;;;;;5014826;28;20079;-80
2021/03/19 06:31:43;;;;;;;45.17;43.38;;;;;;;;;;4988606;28;20048;-80
2021/03/19 06:34:25;;;;;;;44.95;43.03;;;;;;;;;;5029047;28;20128;-80
2021/03/19 06:36:58;;;;;;;45.05;42.72;;;;;;;;;;5047242;28;20041;-80
2021/03/19 06:39:26;;;;;;;47.47;45.33;;;;;;;;;;5033590;28;20049;-80
2021/03/19 06:42:05;;;;;;;48.10;46.45;;;;;;;;;;5048284;28;20056;-80
2021/03/19 06:44:37;;;;;;;44.25;42.75;;;;;;;;;;5017037;28;20046;-80
2021/03/19 06:47:05;;;;;;;44.45;42.83;;;;;;;;;;5031033;28;20425;-80
2021/03/19 06:49:47;;;;;;;43.38;41.67;;;;;;;;;;5027166;28;20041;-80
2021/03/19 06:56:21;;;;;;;44.92;43.13;;;;;;;;;;5050356;28;20032;-81
2021/03/19 06:58:50;;;;;;;84.22;75.25;;;;;;;;;;5030415;28;20137;-81
2021/03/19 07:01:23;;;;;;;47.92;45.85;;;;;;;;;;5026777;28;20045;-80
2021/03/19 07:04:02;;;;;;;47.97;45.92;;;;;;;;;;5051630;28;20029;-81
2021/03/19 07:06:41;;;;;;;42.90;40.97;;;;;;;;;;5044159;28;20048;-81
2021/03/19 07:09:24;;;;;;;50.08;47.50;;;;;;;;;;5016216;28;20491;-81
2021/03/19 07:11:54;;;;;;;46.22;44.03;;;;;;;;;;5032276;28;20041;-81
2021/03/19 07:14:25;;;;;;;48.83;46.33;;;;;;;;;;5045237;28;20437;-81
2021/03/19 07:16:52;;;;;;;51.28;48.28;;;;;;;;;;5030518;28;20064;-81
2021/03/19 07:19:31;;;;;;;51.60;48.30;;;;;;;;;;5031778;28;20674;-81
2021/03/19 07:22:20;;;;;;;50.80;48.05;;;;;;;;;;5024578;28;20046;-80
2021/03/19 07:24:50;;;;;;;54.13;50.50;;;;;;;;;;5031221;28;20044;-81
2021/03/19 07:27:29;;;;;;;48.10;45.38;;;;;;;;;;5048385;28;20044;-81
2021/03/19 07:30:15;;;;;;;49.03;46.33;;;;;;;;;;5044273;28;20133;-80
2021/03/19 07:33:01;;;;;;;48.08;45.00;;;;;;;;;;5029831;28;20498;-81
2021/03/19 07:35:47;;;;;;;47.78;44.58;;;;;;;;;;5049172;28;20041;-81
2021/03/19 07:38:20;;;;;;;47.22;44.35;;;;;;;;;;5043898;28;20049;-81
2021/03/19 07:40:50;;;;;;;44.88;42.83;;;;;;;;;;5022587;28;20045;-81
2021/03/19 07:43:20;;;;;;;44.35;42.72;;;;;;;;;;5016236;28;20278;-81
2021/03/19 07:45:58;;;;;;;43.20;41.30;;;;;;;;;;5027702;28;20103;-81
2021/03/19 07:48:51;;;;;;;46.35;44.42;;;;;;;;;;5034618;28;20037;-81
2021/03/19 07:51:21;;;;;;;39.00;37.65;;;;;;;;;;5030915;28;20075;-81
2021/03/19 07:53:48;;;;;;;44.00;41.85;;;;;;;;;;5028546;28;20060;-81
2021/03/19 07:56:18;;;;;;;45.35;43.55;;;;;;;;;;5053856;28;20048;-81
2021/03/19 07:58:55;;;;;;;42.38;40.78;;;;;;;;;;5044754;28;20036;-81
2021/03/19 08:01:22;;;;;;;46.92;44.35;;;;;;;;;;5029772;28;20053;-81
2021/03/19 08:03:56;;;;;;;43.90;42.00;;;;;;;;;;5000660;28;20088;-81
2021/03/19 08:06:28;;;;;;;47.20;44.67;;;;;;;;;;5027125;28;20044;-81
2021/03/19 08:09:08;;;;;;;44.53;42.63;;;;;;;;;;5047093;28;20044;-81
2021/03/19 08:11:39;;;;;;;40.45;38.55;;;;;;;;;;5032072;28;20052;-81
2021/03/19 08:14:09;;;;;;;43.72;41.65;;;;;;;;;;5044590;28;20040;-81
2021/03/19 08:16:37;;;;;;;46.80;44.55;;;;;;;;;;5052865;28;20049;-81
2021/03/19 08:19:16;;;;;;;44.08;42.05;;;;;;;;;;5045161;28;20078;-81
2021/03/19 08:21:53;;;;;;;41.33;39.58;;;;;;;;;;5039545;28;20042;-81
2021/03/19 08:24:26;;;;;;;45.15;42.85;;;;;;;;;;5048532;28;20126;-81
2021/03/19 08:27:10;;;;;;;42.38;40.47;;;;;;;;;;5044554;28;20475;-80
2021/03/19 08:30:03;;;;;;;39.35;37.42;;;;;;;;;;5046800;28;20033;-80
2021/03/19 08:32:36;;;;;;;23.97;22.93;;;;;;;;;;5012680;28;20045;-81
2021/03/19 08:35:03;;;;;;;;;;;;;;;;;;5045077;28;20354;-80
2021/03/19 08:37:52;;;;;;;15.60;14.88;;;;;;;;;;5029919;28;19921;-80
2021/03/19 08:40:34;;;;;;;14.43;13.85;;;;;;;;;;5030986;28;20123;-80
2021/03/19 08:43:04;;;;;;;15.17;14.33;;;;;;;;;;5022703;28;20128;-80
2021/03/19 08:45:33;;;;;;;15.50;14.45;;;;;;;;;;5036496;28;20060;-80
2021/03/19 08:48:02;;;;;;;13.38;12.80;;;;;;;;;;5032761;28;20072;-81
2021/03/19 08:50:39;;;;;;;13.20;12.40;;;;;;;;;;5026837;28;20732;-81
2021/03/19 08:53:14;;;;;;;11.25;11.00;;;;;;;;;;5048187;28;20049;-81
2021/03/19 08:55:43;;;;;;;8.48;8.32;;;;;;;;;;5045221;28;20040;-81
2021/03/19 08:58:28;;;;;;;8.60;8.27;;;;;;;;;;5027773;28;20111;-81
2021/03/19 09:00:58;;;;;;;8.23;8.02;;;;;;;;;;5033461;28;20035;-81
2021/03/19 09:03:38;;;;;;;46.65;24.45;;;;;;;;;;5042516;28;20102;-81
2021/03/19 09:06:06;;;;;;;9.10;8.65;;;;;;;;;;5025679;28;20041;-81
2021/03/19 09:08:39;;;;;;;10.65;9.85;;;;;;;;;;5030529;28;20038;-81
2021/03/19 09:11:07;;;;;;;7.50;7.32;;;;;;;;;;5027701;28;20041;-81
2021/03/19 09:13:34;;;;;;;7.60;7.40;;;;;;;;;;5035996;28;20192;-81
2021/03/19 09:16:21;;;;;;;5.90;5.80;;;;;;;;;;5061023;28;20052;-81
2021/03/19 09:18:49;;;;;;;6.38;6.10;;;;;;;;;;5033968;28;20052;-81
2021/03/19 09:21:30;;;;;;;4.75;4.75;;;;;;;;;;5051467;28;20510;-81
2021/03/19 09:24:18;;;;;;;6.13;6.13;;;;;;;;;;5050097;28;20095;-81
2021/03/19 09:26:59;;;;;;;5.78;5.57;;;;;;;;;;5033497;28;20029;-81
2021/03/19 09:29:31;;;;;;;5.05;4.95;;;;;;;;;;5036663;28;20057;-81
2021/03/19 09:31:59;;;;;;;5.38;5.28;;;;;;;;;;5034967;28;20091;-81
2021/03/19 09:34:30;;;;;;;6.45;6.35;;;;;;;;;;5015555;28;20056;-81
2021/03/19 09:37:12;;;;;;;10.20;9.85;;;;;;;;;;5052123;28;20041;-81
2021/03/19 09:39:58;;;;;;;6.22;6.13;;;;;;;;;;5043837;28;20108;-81
2021/03/19 09:42:27;;;;;;;6.13;6.03;;;;;;;;;;5016299;28;20672;-81
2021/03/19 09:44:54;;;;;;;8.35;8.05;;;;;;;;;;5034091;28;20399;-81
2021/03/19 09:47:24;;;;;;;5.95;5.85;;;;;;;;;;5028089;28;20048;-81
2021/03/19 09:50:23;;;;;;;5.68;5.57;;;;;;;;;;5050251;28;20593;-81
2021/03/19 09:53:01;;;;;;;5.30;5.20;;;;;;;;;;5016687;28;20147;-81
2021/03/19 09:55:39;;;;;;;5.28;5.18;;;;;;;;;;5029676;28;20156;-81
2021/03/19 09:58:18;;;;;;;5.13;5.10;;;;;;;;;;5043285;28;20041;-81
2021/03/19 10:00:49;;;;;;;3.95;3.85;;;;;;;;;;5032104;28;20103;-81
2021/03/19 10:03:17;;;;;;;4.25;4.25;;;;;;;;;;5028467;28;20068;-81
2021/03/19 10:05:46;;;;;;;4.78;4.63;;;;;;;;;;5052004;28;20703;-81
2021/03/19 10:08:31;;;;;;;4.80;4.70;;;;;;;;;;5026384;28;20060;-81
2021/03/19 10:11:06;;;;;;;5.88;5.78;;;;;;;;;;5032827;28;20052;-81
2021/03/19 10:13:35;;;;;;;4.05;3.88;;;;;;;;;;5052648;28;20037;-81
2021/03/19 10:16:03;;;;;;;4.25;4.20;;;;;;;;;;5045859;28;20051;-81
2021/03/19 10:18:46;;;;;;;4.68;4.55;;;;;;;;;;5046265;28;20722;-81
2021/03/19 10:21:21;;;;;;;4.57;4.47;;;;;;;;;;5051049;28;20037;-82
2021/03/19 10:23:52;;;;;;;5.05;4.95;;;;;;;;;;5027247;28;20053;-82
2021/03/19 10:26:34;;;;;;;3.42;3.33;;;;;;;;;;5033180;28;20033;-82
2021/03/19 10:29:20;;;;;;;5.68;5.57;;;;;;;;;;5048470;28;20041;-82
2021/03/19 10:31:53;;;;;;;3.63;3.63;;;;;;;;;;5027698;28;20135;-82
2021/03/19 10:34:24;;;;;;;4.22;4.13;;;;;;;;;;5040070;28;20083;-82
2021/03/19 10:36:59;;;;;;;3.60;3.60;;;;;;;;;;5032590;28;20048;-82
2021/03/19 10:39:26;;;;;;;4.07;4.07;;;;;;;;;;5046775;28;20041;-82
2021/03/19 10:42:13;;;;;;;4.07;3.88;;;;;;;;;;5038281;28;20469;-82
2021/03/19 10:44:55;;;;;;;3.72;3.72;;;;;;;;;;5027431;28;20069;-82
2021/03/19 10:47:31;;;;;;;3.28;3.28;;;;;;;;;;5051942;28;20068;-82
2021/03/19 10:50:07;;;;;;;3.22;3.22;;;;;;;;;;5031401;28;20553;-82
2021/03/19 10:52:40;;;;;;;3.30;3.30;;;;;;;;;;5015706;28;20037;-81
2021/03/19 10:55:24;;;;;;;3.42;3.42;;;;;;;;;;5048440;28;20044;-82
2021/03/19 10:57:55;;;;;;;4.28;4.22;;;;;;;;;;5032300;28;20041;-82
2021/03/19 11:00:36;;;;;;;4.97;4.53;;;;;;;;;;5043661;28;20037;-82
2021/03/19 11:03:05;;;;;;;3.63;3.63;;;;;;;;;;5039978;28;20058;-82
2021/03/19 11:05:53;;;;;;;5.00;4.90;;;;;;;;;;5046008;28;20041;-82
2021/03/19 11:08:20;;;;;;;4.50;4.40;;;;;;;;;;5039624;28;20029;-82
2021/03/19 11:10:50;;;;;;;4.25;4.15;;;;;;;;;;5052351;28;20524;-82
2021/03/19 11:13:19;;;;;;;4.28;4.28;;;;;;;;;;5045367;28;20098;-82
2021/03/19 11:15:48;;;;;;;5.18;5.18;;;;;;;;;;5049544;28;20057;-83
2021/03/19 11:18:15;;;;;;;5.50;5.40;;;;;;;;;;5026373;28;20056;-82
2021/03/19 11:20:54;;;;;;;5.00;4.78;;;;;;;;;;5026935;28;20399;-82
2021/03/19 11:23:24;;;;;;;4.70;4.50;;;;;;;;;;5044434;28;20041;-82
2021/03/19 11:25:53;;;;;;;4.53;4.53;;;;;;;;;;5045963;28;20087;-82
2021/03/19 11:28:20;;;;;;;5.88;5.78;;;;;;;;;;5030976;28;20386;-82
2021/03/19 11:30:48;;;;;;;4.50;4.45;;;;;;;;;;5034046;28;20052;-82
2021/03/19 11:33:17;;;;;;;5.32;5.32;;;;;;;;;;5042978;28;20033;-82
2021/03/19 11:36:03;;;;;;;5.32;5.22;;;;;;;;;;5049536;28;20041;-82
2021/03/19 11:38:34;;;;;;;5.65;5.45;;;;;;;;;;5048661;28;20413;-82
2021/03/19 11:41:01;;;;;;;5.43;5.43;;;;;;;;;;5029552;28;20136;-82
2021/03/19 11:43:29;;;;;;;6.30;6.20;;;;;;;;;;5033559;28;20061;-82
2021/03/19 11:45:57;;;;;;;6.85;6.65;;;;;;;;;;5032321;28;20041;-82
2021/03/19 11:48:33;;;;;;;5.82;5.72;;;;;;;;;;5032083;28;20044;-82
2021/03/19 11:51:16;;;;;;;4.95;4.85;;;;;;;;;;5048695;28;20063;-82
2021/03/19 11:53:43;;;;;;;4.47;4.38;;;;;;;;;;5026350;28;20033;-82
2021/03/19 11:56:22;;;;;;;5.60;5.28;;;;;;;;;;5034568;28;21361;-82
2021/03/19 11:58:50;;;;;;;6.13;6.03;;;;;;;;;;5030173;28;20374;-82
2021/03/19 12:01:18;;;;;;;5.95;5.85;;;;;;;;;;5029666;28;20033;-82
2021/03/19 12:03:47;;;;;;;6.30;6.20;;;;;;;;;;5051125;28;20475;-82
2021/03/19 12:06:16;;;;;;;4.88;4.88;;;;;;;;;;5012147;28;20137;-81
2021/03/19 12:08:44;;;;;;;10.40;10.10;;;;;;;;;;5047354;28;20043;-82
2021/03/19 12:11:15;;;;;;;5.18;5.10;;;;;;;;;;5048017;28;20068;-82
2021/03/19 12:13:42;;;;;;;5.28;5.28;;;;;;;;;;5043887;28;20049;-82
2021/03/19 12:16:09;;;;;;;5.88;5.78;;;;;;;;;;5031148;28;20403;-82
2021/03/19 12:18:36;;;;;;;6.13;6.03;;;;;;;;;;5014957;28;20037;-82
2021/03/19 12:21:03;;;;;;;5.90;5.80;;;;;;;;;;5028152;28;20556;-82
2021/03/19 12:23:30;;;;;;;6.10;6.00;;;;;;;;;;5031436;28;20037;-82
2021/03/19 12:26:08;;;;;;;5.82;5.72;;;;;;;;;;5044978;28;20041;-82
2021/03/19 12:28:35;;;;;;;7.00;6.90;;;;;;;;;;5030639;28;20426;-82
2021/03/19 12:31:03;;;;;;;7.80;7.70;;;;;;;;;;5050520;28;20037;-82
2021/03/19 12:33:31;;;;;;;6.50;6.40;;;;;;;;;;5052667;28;20044;-82
2021/03/19 12:35:59;;;;;;;5.40;5.30;;;;;;;;;;5046027;28;20816;-82
2021/03/19 12:38:27;;;;;;;6.50;6.30;;;;;;;;;;5036571;28;20052;-81
2021/03/19 12:40:57;;;;;;;5.43;5.43;;;;;;;;;;5037181;28;20033;-81
2021/03/19 12:43:25;;;;;;;5.57;5.47;;;;;;;;;;5016639;28;20049;-81
2021/03/19 12:45:52;;;;;;;5.15;5.10;;;;;;;;;;5033182;28;20132;-81
2021/03/19 12:48:20;;;;;;;5.10;5.00;;;;;;;;;;5027908;28;20132;-81
2021/03/19 12:50:47;;;;;;;6.45;6.15;;;;;;;;;;5034509;28;20044;-81
2021/03/19 12:53:15;;;;;;;5.50;5.40;;;;;;;;;;5032842;28;20735;-81
2021/03/19 12:55:43;;;;;;;5.25;5.05;;;;;;;;;;5053100;28;20041;-81
2021/03/19 12:58:11;;;;;;;4.35;4.35;;;;;;;;;;5029205;28;20041;-81
2021/03/19 13:00:39;;;;;;;5.28;5.28;;;;;;;;;;5052277;28;20457;-81
2021/03/19 13:03:07;;;;;;;4.82;4.82;;;;;;;;;;5027739;28;20045;-81
2021/03/19 13:05:35;;;;;;;5.47;5.47;;;;;;;;;;5031523;28;20043;-81
2021/03/19 13:08:03;;;;;;;5.30;5.30;;;;;;;;;;5019521;28;20065;-81
2021/03/19 13:10:32;;;;;;;5.30;5.15;;;;;;;;;;5033018;28;20041;-80
2021/03/19 13:12:59;;;;;;;5.88;5.78;;;;;;;;;;5009144;28;20132;-80
2021/03/19 13:15:27;;;;;;;5.30;5.20;;;;;;;;;;5024585;28;20510;-80
2021/03/19 13:17:55;;;;;;;5.25;5.15;;;;;;;;;;5027700;28;20048;-80
2021/03/19 13:20:23;;;;;;;5.50;5.18;;;;;;;;;;5024881;28;20128;-80
2021/03/19 13:22:50;;;;;;;5.95;5.82;;;;;;;;;;5027259;28;20046;-80
2021/03/19 13:25:21;;;;;;;10.88;9.98;;;;;;;;;;5025890;28;20037;-80
2021/03/19 13:27:50;;;;;;;5.75;5.65;;;;;;;;;;5052032;28;20044;-81
2021/03/19 13:30:27;;;;;;;5.10;5.10;;;;;;;;;;5013461;28;20042;-81
2021/03/19 13:32:55;;;;;;;4.95;4.95;;;;;;;;;;5020835;28;20049;-81
2021/03/19 13:35:24;;;;;;;7.53;7.43;;;;;;;;;;5048923;28;20083;-81
2021/03/19 13:37:51;;;;;;;5.88;5.78;;;;;;;;;;5046426;28;20557;-81
2021/03/19 13:40:20;;;;;;;4.65;4.55;;;;;;;;;;5052174;28;20045;-82
2021/03/19 13:42:47;;;;;;;9.63;9.23;;;;;;;;;;5030657;28;20610;-81
2021/03/19 13:45:15;;;;;;;4.65;4.65;;;;;;;;;;5015671;28;20102;-81
2021/03/19 13:47:42;;;;;;;4.03;3.83;;;;;;;;;;5032290;28;20041;-81
2021/03/19 13:50:10;;;;;;;5.00;4.90;;;;;;;;;;5027824;28;20441;-81
2021/03/19 13:52:37;;;;;;;4.68;4.68;;;;;;;;;;5037737;28;20033;-81
2021/03/19 13:55:06;;;;;;;5.20;5.10;;;;;;;;;;5029307;28;20037;-82
2021/03/19 13:57:43;;;;;;;16.40;16.00;;;;;;;;;;5051726;28;20033;-82
2021/03/19 14:00:11;;;;;;;12.27;12.05;;;;;;;;;;5033959;28;20069;-81
2021/03/19 14:02:39;;;;;;;21.05;20.75;;;;;;;;;;5027956;28;20622;-81
2021/03/19 14:05:07;;;;;;;21.80;21.27;;;;;;;;;;5034446;28;20060;-81
2021/03/19 14:07:34;;;;;;;12.15;11.95;;;;;;;;;;5049248;28;20041;-81
2021/03/19 14:10:03;;;;;;;19.58;19.27;;;;;;;;;;5049189;28;20099;-81
2021/03/19 14:12:30;;;;;;;22.92;22.33;;;;;;;;;;5051436;28;20048;-82
2021/03/19 14:14:57;;;;;;;23.88;23.38;;;;;;;;;;5017197;28;20453;-81
2021/03/19 14:17:24;;;;;;;23.23;22.73;;;;;;;;;;5042257;28;21153;-81
2021/03/19 14:19:57;;;;;;;23.83;23.13;;;;;;;;;;5051885;28;20041;-81
2021/03/19 14:22:24;;;;;;;24.85;24.25;;;;;;;;;;5045526;28;20431;-81
2021/03/19 14:24:51;;;;;;;25.38;24.77;;;;;;;;;;5033664;28;20042;-81
2021/03/19 14:27:18;;;;;;;28.05;26.77;;;;;;;;;;5030098;28;20047;-81
2021/03/19 14:29:45;;;;;;;23.60;23.20;;;;;;;;;;5049658;28;20042;-81
2021/03/19 14:32:12;;;;;;;37.10;34.55;;;;;;;;;;5049294;28;20037;-81
2021/03/19 14:34:40;;;;;;;21.33;20.92;;;;;;;;;;5026198;28;20055;-81
2021/03/19 14:37:08;;;;;;;11.15;11.00;;;;;;;;;;5032944;28;20545;-81
2021/03/19 14:39:35;;;;;;;5.93;5.82;;;;;;;;;;5029027;28;20080;-82
2021/03/19 14:42:03;;;;;;;6.38;6.28;;;;;;;;;;5030869;28;20099;-81
2021/03/19 14:44:30;;;;;;;5.40;5.30;;;;;;;;;;5033139;28;20036;-81
2021/03/19 14:46:58;;;;;;;5.03;4.93;;;;;;;;;;5027760;28;20061;-81
2021/03/19 14:49:25;;;;;;;6.68;6.15;;;;;;;;;;5032241;28;20386;-81
2021/03/19 14:51:54;;;;;;;5.45;5.25;;;;;;;;;;5049746;28;20060;-81
2021/03/19 14:54:21;;;;;;;4.60;4.60;;;;;;;;;;5029074;28;20065;-81
2021/03/19 14:56:49;;;;;;;5.80;5.70;;;;;;;;;;5033474;28;20056;-81